Time;durP1;ratioP1;P1;durP2;ratioP2;P2;SDS_P1;SDS_P2;PMS_P1;PMS_P2;Temp;Humidity;BMP_temperature;BMP_pressure;BME280_temperature;BME280_humidity;BME280_pressure;Samples;Min_cycle;Max_cycle;Signal;HPM_P1;HPM_P2
2021/10/05 00:03:38;;;;;;;42.50;27.20;;;;;;;14.56;68.56;99253.58;236403;1193;139485;-60
2021/10/05 00:08:41;;;;;;;44.00;29.30;;;;;;;14.55;68.71;99246.39;235869;1195;138925;-61
2021/10/05 00:13:44;;;;;;;43.50;29.00;;;;;;;14.53;68.96;99244.58;236218;1193;139631;-60
2021/10/05 00:18:49;;;;;;;43.80;28.70;;;;;;;14.51;68.97;99248.48;236311;1193;138458;-61
2021/10/05 00:23:52;;;;;;;43.20;27.30;;;;;;;14.48;68.97;99245.97;235984;1195;138992;-61
2021/10/05 00:28:56;;;;;;;39.00;25.60;;;;;;;14.51;69.24;99240.03;236152;1194;139382;-60
2021/10/05 00:33:59;;;;;;;41.50;27.30;;;;;;;14.57;69.31;99238.53;235584;1195;139424;-61
2021/10/05 00:39:02;;;;;;;42.20;28.00;;;;;;;14.63;69.41;99233.08;236325;1194;140097;-61
2021/10/05 00:44:06;;;;;;;120.50;73.80;;;;;;;14.65;69.54;99228.63;236283;1195;139268;-60
2021/10/05 00:49:09;;;;;;;44.10;29.40;;;;;;;14.69;69.53;99217.98;236215;1195;139454;-61
2021/10/05 00:54:12;;;;;;;41.40;26.80;;;;;;;14.67;69.36;99214.04;236227;1194;139716;-62
2021/10/05 00:59:15;;;;;;;39.30;25.30;;;;;;;14.64;69.36;99214.58;236151;1193;139718;-62
2021/10/05 01:04:19;;;;;;;39.70;25.40;;;;;;;14.63;69.33;99208.03;235707;1195;139838;-60
2021/10/05 01:09:22;;;;;;;38.70;26.20;;;;;;;14.61;69.23;99206.96;235507;1194;141243;-63
2021/10/05 01:14:26;;;;;;;41.90;24.90;;;;;;;14.56;68.99;99206.52;236098;1194;138923;-63
2021/10/05 01:19:29;;;;;;;41.90;26.80;;;;;;;14.46;68.88;99201.98;235904;1195;138797;-64
2021/10/05 01:24:33;;;;;;;37.20;23.80;;;;;;;14.36;68.88;99196.66;235883;1194;139130;-63
2021/10/05 01:29:36;;;;;;;35.10;23.20;;;;;;;14.30;69.07;99193.36;236249;1195;140216;-63
2021/10/05 01:34:39;;;;;;;35.30;24.50;;;;;;;14.32;69.33;99191.67;236112;1195;139263;-62
2021/10/05 01:39:43;;;;;;;36.50;24.50;;;;;;;14.32;69.28;99183.45;235905;1195;138575;-65
2021/10/05 01:44:46;;;;;;;36.90;24.40;;;;;;;14.28;69.24;99181.61;236378;1194;138898;-65
2021/10/05 01:49:50;;;;;;;38.00;24.70;;;;;;;14.23;69.22;99182.65;235912;1195;138658;-65
2021/10/05 01:54:53;;;;;;;32.70;22.50;;;;;;;14.20;69.41;99180.22;236231;1195;138913;-68
2021/10/05 01:59:56;;;;;;;38.00;23.70;;;;;;;14.18;69.38;99179.96;236221;1195;139724;-68
2021/10/05 02:04:59;;;;;;;37.80;23.90;;;;;;;14.21;69.47;99185.30;236525;1193;139203;-67
2021/10/05 02:10:08;;;;;;;39.50;24.10;;;;;;;14.19;69.55;99184.91;236138;1193;139011;-67
2021/10/05 02:15:11;;;;;;;38.00;24.80;;;;;;;14.17;69.46;99190.45;236391;1193;138627;-68
2021/10/05 02:20:14;;;;;;;37.90;24.80;;;;;;;14.14;69.52;99183.15;236342;1195;139238;-68
2021/10/05 02:25:19;;;;;;;34.30;22.80;;;;;;;14.10;69.37;99180.04;235964;1194;141215;-64
2021/10/05 02:30:22;;;;;;;30.60;21.90;;;;;;;14.04;69.30;99173.02;235168;1195;139924;-66
2021/10/05 02:35:26;;;;;;;34.50;23.80;;;;;;;14.00;69.19;99171.91;235915;1195;139644;-67
2021/10/05 02:40:30;;;;;;;34.70;23.70;;;;;;;13.97;69.25;99173.19;236289;1188;139156;-62
2021/10/05 02:45:33;;;;;;;33.70;22.80;;;;;;;13.92;69.36;99168.34;235906;1195;140026;-65
2021/10/05 02:50:36;;;;;;;37.40;22.90;;;;;;;13.86;69.33;99163.25;236117;1195;138699;-62
2021/10/05 02:55:40;;;;;;;36.20;21.20;;;;;;;13.82;69.37;99158.08;235895;1195;138753;-64
2021/10/05 03:00:44;;;;;;;37.10;22.50;;;;;;;13.78;69.37;99157.61;236128;1193;140226;-63
2021/10/05 03:05:47;;;;;;;31.30;22.60;;;;;;;13.80;69.63;99158.79;236477;1193;139598;-63
2021/10/05 03:10:50;;;;;;;38.50;24.60;;;;;;;13.81;69.63;99153.34;236258;1195;138766;-62
2021/10/05 03:15:53;;;;;;;36.60;23.90;;;;;;;13.82;69.65;99152.16;236112;1195;138561;-62
2021/10/05 03:20:57;;;;;;;35.90;23.60;;;;;;;13.84;69.73;99147.95;236006;1194;139225;-64
2021/10/05 03:26:00;;;;;;;32.90;22.40;;;;;;;13.82;69.74;99142.14;236480;1194;138503;-63
2021/10/05 03:31:03;;;;;;;29.20;20.30;;;;;;;13.80;69.71;99133.09;236263;1195;140108;-62
2021/10/05 03:36:07;;;;;;;33.50;20.90;;;;;;;13.83;69.90;99133.21;236630;1194;139086;-61
2021/10/05 03:41:10;;;;;;;32.00;21.90;;;;;;;13.86;69.79;99131.23;236383;1195;139047;-59
2021/10/05 03:46:14;;;;;;;31.30;20.60;;;;;;;13.85;70.00;99126.40;236399;1195;138990;-63
2021/10/05 03:51:17;;;;;;;28.70;19.30;;;;;;;13.87;70.13;99120.94;236469;1194;138838;-62
2021/10/05 03:56:20;;;;;;;80.00;57.80;;;;;;;13.89;70.34;99115.27;236489;1194;139742;-61
2021/10/05 04:01:23;;;;;;;35.90;24.80;;;;;;;14.02;70.51;99112.36;236205;1193;139265;-66
2021/10/05 04:06:27;;;;;;;76.30;54.90;;;;;;;14.17;70.75;99109.81;236464;1193;138846;-65
2021/10/05 04:11:30;;;;;;;28.60;18.60;;;;;;;14.29;70.58;99109.09;236301;1195;138518;-65
2021/10/05 04:16:33;;;;;;;26.30;18.10;;;;;;;14.32;70.25;99115.79;236486;1189;139807;-65
2021/10/05 04:21:37;;;;;;;26.10;17.80;;;;;;;14.28;70.12;99116.97;236389;1195;139542;-62
2021/10/05 04:26:40;;;;;;;26.00;16.60;;;;;;;14.23;70.12;99115.77;236240;1194;138654;-60
2021/10/05 04:31:43;;;;;;;210.40;151.60;;;;;;;14.18;70.04;99119.48;235321;1195;140961;-65
2021/10/05 04:36:46;;;;;;;25.90;18.00;;;;;;;14.17;70.07;99119.77;236090;1194;141237;-64
2021/10/05 04:41:49;;;;;;;24.60;17.30;;;;;;;14.11;70.00;99122.33;236477;1193;139293;-62
2021/10/05 04:46:52;;;;;;;23.80;16.90;;;;;;;14.06;69.89;99121.00;236559;1194;139348;-60
2021/10/05 04:51:56;;;;;;;21.50;16.80;;;;;;;13.99;70.05;99120.59;236239;1195;139125;-63
2021/10/05 04:56:59;;;;;;;23.20;16.70;;;;;;;13.92;70.05;99125.92;236541;1194;139634;-62
2021/10/05 05:02:02;;;;;;;22.00;15.80;;;;;;;13.90;70.18;99119.86;236449;1193;139294;-64
2021/10/05 05:07:06;;;;;;;28.60;16.90;;;;;;;13.89;70.28;99123.30;236561;1194;138712;-62
2021/10/05 05:12:09;;;;;;;21.90;15.70;;;;;;;13.87;70.25;99114.70;236631;1194;139076;-61
2021/10/05 05:17:12;;;;;;;22.90;16.00;;;;;;;13.88;70.34;99120.34;236480;1194;139325;-62
2021/10/05 05:22:15;;;;;;;24.10;16.80;;;;;;;13.87;70.25;99123.82;236459;1193;139062;-63
2021/10/05 05:27:18;;;;;;;22.60;15.70;;;;;;;13.84;70.34;99126.15;236501;1193;139491;-64
2021/10/05 05:32:21;;;;;;;23.70;15.00;;;;;;;13.84;70.37;99127.95;236273;1195;139566;-63
2021/10/05 05:37:24;;;;;;;25.80;16.10;;;;;;;13.88;70.50;99134.58;236243;1194;142182;-62
2021/10/05 05:42:27;;;;;;;22.50;16.50;;;;;;;13.92;70.50;99142.17;236529;1195;139156;-64
2021/10/05 05:47:31;;;;;;;22.70;16.10;;;;;;;14.00;70.65;99151.27;236450;1194;140578;-62
2021/10/05 05:52:34;;;;;;;25.80;16.10;;;;;;;14.01;70.56;99155.77;236382;1194;139167;-67
2021/10/05 05:57:37;;;;;;;23.20;14.70;;;;;;;14.03;70.69;99147.56;235565;1193;139018;-63
2021/10/05 06:02:41;;;;;;;23.70;13.70;;;;;;;14.06;70.74;99152.35;236314;1194;139700;-65
2021/10/05 06:07:44;;;;;;;22.90;14.50;;;;;;;14.16;70.60;99153.88;236290;1195;141759;-67
2021/10/05 06:12:47;;;;;;;27.10;16.80;;;;;;;14.24;70.40;99148.89;236404;1195;140636;-67
2021/10/05 06:17:51;;;;;;;29.10;15.70;;;;;;;14.26;70.37;99140.84;236393;1193;138865;-64
2021/10/05 06:22:55;;;;;;;28.50;16.60;;;;;;;14.30;70.15;99133.99;236257;1194;139037;-64
2021/10/05 06:28:00;;;;;;;24.60;14.90;;;;;;;14.30;70.12;99133.39;236262;1194;138850;-63
2021/10/05 06:33:04;;;;;;;24.70;12.80;;;;;;;14.36;70.28;99131.73;236218;1193;139658;-68
2021/10/05 06:38:07;;;;;;;18.50;12.00;;;;;;;14.44;70.44;99128.23;236409;1194;139491;-65
2021/10/05 06:43:10;;;;;;;16.70;11.40;;;;;;;14.56;70.28;99123.59;236602;1194;138859;-63
2021/10/05 06:48:13;;;;;;;20.70;11.10;;;;;;;14.66;70.35;99123.36;236597;1193;138922;-63
2021/10/05 06:53:17;;;;;;;14.90;11.50;;;;;;;14.73;70.39;99117.98;236410;1193;139540;-63
2021/10/05 06:58:20;;;;;;;15.90;10.00;;;;;;;14.80;70.20;99117.46;235372;1193;138920;-64
2021/10/05 07:03:23;;;;;;;12.60;8.80;;;;;;;14.89;70.47;99107.07;236233;1193;139702;-64
2021/10/05 07:08:26;;;;;;;13.50;9.50;;;;;;;15.02;70.19;99105.54;236027;1195;139836;-62
2021/10/05 07:13:30;;;;;;;15.80;9.60;;;;;;;15.11;70.19;99108.89;236470;1193;139469;-62
2021/10/05 07:18:34;;;;;;;20.70;9.60;;;;;;;15.24;70.22;99105.21;236308;1195;139028;-60
2021/10/05 07:23:37;;;;;;;22.00;11.40;;;;;;;15.34;70.10;99094.95;236110;1195;139583;-65
2021/10/05 07:28:50;;;;;;;14.40;8.40;;;;;;;15.38;69.97;99095.34;236337;1194;139288;-66
2021/10/05 07:33:53;;;;;;;11.10;8.30;;;;;;;15.43;69.70;99092.79;236453;1195;140278;-64
2021/10/05 07:38:56;;;;;;;14.60;9.40;;;;;;;15.53;69.92;99094.77;236422;1195;139077;-65
2021/10/05 07:43:59;;;;;;;16.40;9.10;;;;;;;15.67;69.79;99091.88;236199;1194;139528;-62
2021/10/05 07:49:03;;;;;;;15.70;9.50;;;;;;;15.77;69.82;99088.79;236356;1194;138930;-62
2021/10/05 07:54:06;;;;;;;14.90;10.10;;;;;;;15.91;70.09;99092.25;236310;1194;139591;-67
2021/10/05 07:59:09;;;;;;;17.20;9.70;;;;;;;16.08;69.95;99091.76;236089;1195;139175;-65
2021/10/05 08:04:12;;;;;;;18.50;10.80;;;;;;;16.22;69.57;99091.94;235848;1195;139710;-65
2021/10/05 08:09:16;;;;;;;20.50;11.30;;;;;;;16.36;69.53;99083.60;236177;1195;139588;-64
2021/10/05 08:14:19;;;;;;;23.40;12.00;;;;;;;16.49;69.19;99080.04;236294;1195;138766;-63
2021/10/05 08:19:23;;;;;;;20.10;11.00;;;;;;;16.63;69.31;99077.44;236347;1194;139120;-64
2021/10/05 08:24:27;;;;;;;25.80;11.80;;;;;;;16.73;69.25;99069.16;236138;1195;138848;-64
2021/10/05 08:29:30;;;;;;;27.90;14.20;;;;;;;16.84;68.97;99077.38;236027;1195;139657;-64
2021/10/05 08:34:33;;;;;;;222.50;148.60;;;;;;;16.90;68.95;99074.02;236160;1195;139532;-65
2021/10/05 08:39:37;;;;;;;47.80;22.10;;;;;;;17.02;68.75;99071.15;235658;1195;140453;-64
2021/10/05 08:44:40;;;;;;;49.80;17.20;;;;;;;17.13;68.52;99070.31;236025;1195;139400;-64
2021/10/05 08:49:45;;;;;;;888.50;641.70;;;;;;;17.31;68.61;99070.04;236123;1193;138557;-64
2021/10/05 08:54:53;;;;;;;54.20;28.50;;;;;;;17.47;68.50;99056.38;236343;1195;139318;-65
2021/10/05 09:00:06;;;;;;;27.40;13.00;;;;;;;17.58;68.27;99053.81;235872;1195;139054;-64
2021/10/05 09:05:13;;;;;;;19.30;10.40;;;;;;;17.65;67.91;99052.89;236138;1195;139570;-65
2021/10/05 09:10:22;;;;;;;15.00;9.40;;;;;;;17.74;67.54;99051.43;236160;1193;139098;-64
2021/10/05 09:15:28;;;;;;;18.70;7.30;;;;;;;17.81;67.55;99052.02;236399;1193;138786;-64
2021/10/05 09:20:34;;;;;;;15.70;7.50;;;;;;;17.88;67.15;99047.10;236373;1193;139229;-65
2021/10/05 09:25:41;;;;;;;14.10;6.80;;;;;;;17.94;67.00;99049.63;235543;1194;139014;-63
2021/10/05 09:31:03;;;;;;;25.70;14.70;;;;;;;18.08;67.20;99056.53;235802;1195;139358;-64
2021/10/05 09:36:07;;;;;;;22.90;11.60;;;;;;;18.54;68.79;99049.55;235738;1195;139395;-63
2021/10/05 09:41:10;;;;;;;16.20;8.50;;;;;;;18.96;68.28;99044.24;236246;1194;139558;-63
2021/10/05 09:46:19;;;;;;;15.10;9.30;;;;;;;19.24;67.62;99040.62;236300;1194;140093;-62
2021/10/05 09:51:38;;;;;;;13.10;8.80;;;;;;;19.49;67.09;99040.71;236255;1195;138421;-63
2021/10/05 09:56:43;;;;;;;20.60;9.20;;;;;;;19.68;66.84;99030.17;235495;1195;139188;-63
2021/10/05 10:01:55;;;;;;;20.00;8.50;;;;;;;19.84;66.50;99027.13;235013;1195;141317;-62
2021/10/05 10:07:09;;;;;;;15.20;8.70;;;;;;;19.91;66.11;99018.55;235206;1196;138826;-62
2021/10/05 10:12:16;;;;;;;18.10;8.40;;;;;;;19.99;66.14;99012.31;235953;1195;139307;-62
2021/10/05 10:17:25;;;;;;;16.80;9.00;;;;;;;20.11;65.91;99010.59;236347;1195;140020;-65
2021/10/05 10:22:28;;;;;;;154.20;62.20;;;;;;;20.23;65.79;99011.31;236190;1195;139306;-59
2021/10/05 10:27:45;;;;;;;65.70;18.90;;;;;;;20.33;65.58;99004.88;236243;1195;140498;-60
2021/10/05 10:32:53;;;;;;;41.00;15.30;;;;;;;20.45;65.28;98980.38;236262;1195;139775;-60
2021/10/05 10:37:57;;;;;;;25.40;11.50;;;;;;;20.50;65.36;98973.91;236229;1193;139448;-61
2021/10/05 10:43:12;;;;;;;21.00;9.50;;;;;;;20.52;65.17;98970.45;236388;1193;139293;-62
2021/10/05 10:48:35;;;;;;;15.60;8.90;;;;;;;20.58;64.90;98980.31;235877;1193;138629;-62
2021/10/05 10:53:40;;;;;;;13.50;8.00;;;;;;;20.63;64.71;98979.29;236084;1195;138543;-61
2021/10/05 10:58:47;;;;;;;16.10;8.40;;;;;;;20.68;64.48;98971.70;236408;1195;139440;-63
2021/10/05 11:03:50;;;;;;;23.10;9.10;;;;;;;20.71;64.25;98960.18;236471;1194;138980;-61
2021/10/05 11:09:00;;;;;;;14.80;8.00;;;;;;;20.76;63.99;98955.30;236028;1195;138866;-65
2021/10/05 11:14:05;;;;;;;;;;;;;;;20.80;63.84;98934.71;236159;1195;139236;-62
2021/10/05 11:19:16;;;;;;;14.80;7.90;;;;;;;20.82;63.79;98920.99;236723;1193;124874;-65
2021/10/05 11:24:19;;;;;;;13.90;8.90;;;;;;;20.84;63.72;98910.73;236016;1195;139641;-65
2021/10/05 11:29:24;;;;;;;19.70;8.70;;;;;;;20.88;63.65;98910.94;236303;1195;138581;-65
2021/10/05 11:34:29;;;;;;;19.50;7.80;;;;;;;20.98;63.67;98897.42;236327;1194;141674;-62
2021/10/05 11:39:33;;;;;;;14.60;7.30;;;;;;;21.14;63.58;98901.31;235226;1195;138819;-60
2021/10/05 11:44:45;;;;;;;11.80;7.20;;;;;;;21.32;63.04;98899.61;236016;1195;139093;-63
2021/10/05 11:49:52;;;;;;;11.50;6.90;;;;;;;21.51;62.54;98888.50;236441;1195;138713;-61
2021/10/05 11:54:57;;;;;;;13.10;7.30;;;;;;;21.68;62.23;98885.28;236306;1194;138982;-61
2021/10/05 12:00:04;;;;;;;11.30;8.00;;;;;;;21.85;61.65;98880.02;235972;1195;138928;-61
2021/10/05 12:05:24;;;;;;;16.30;7.70;;;;;;;21.94;61.32;98870.08;236066;1195;139113;-61
2021/10/05 12:10:27;;;;;;;16.40;8.10;;;;;;;22.02;60.92;98870.85;235597;1195;139460;-63
2021/10/05 12:15:31;;;;;;;12.90;8.00;;;;;;;22.12;60.67;98858.40;236182;1195;138564;-61
2021/10/05 12:20:34;;;;;;;11.10;7.90;;;;;;;22.18;60.20;98854.81;236147;1195;138730;-61
2021/10/05 12:25:40;;;;;;;15.00;7.90;;;;;;;22.21;59.95;98847.28;236173;1195;138571;-64
2021/10/05 12:30:43;;;;;;;13.40;8.20;;;;;;;22.24;59.72;98842.05;236415;1193;138594;-61
2021/10/05 12:35:51;;;;;;;15.10;7.60;;;;;;;22.30;59.50;98838.01;236286;1194;138734;-61
2021/10/05 12:41:00;;;;;;;18.40;8.40;;;;;;;22.35;59.09;98839.65;236179;1195;138534;-62
2021/10/05 12:46:07;;;;;;;34.00;20.90;;;;;;;22.40;58.67;98839.30;236115;1195;138567;-63
2021/10/05 12:51:18;;;;;;;16.30;9.20;;;;;;;22.47;58.32;98837.35;235808;1195;139193;-60
2021/10/05 12:56:25;;;;;;;12.80;7.70;;;;;;;22.51;58.01;98828.16;235950;1195;138213;-61
2021/10/05 13:01:30;;;;;;;14.60;7.20;;;;;;;22.48;57.67;98823.02;235994;1195;139440;-58
2021/10/05 13:06:35;;;;;;;13.40;6.80;;;;;;;22.45;57.21;98826.48;236060;1194;139036;-61
2021/10/05 13:11:39;;;;;;;37.90;24.40;;;;;;;22.46;56.91;98821.66;235731;1194;138612;-62
2021/10/05 13:16:51;;;;;;;12.80;7.10;;;;;;;22.58;56.77;98817.30;235886;1195;139189;-60
2021/10/05 13:21:54;;;;;;;13.80;6.80;;;;;;;22.73;56.45;98811.82;236073;1195;140004;-61
2021/10/05 13:26:57;;;;;;;17.00;7.80;;;;;;;22.78;55.98;98808.13;236055;1194;138672;-61
2021/10/05 13:32:00;;;;;;;11.60;6.30;;;;;;;22.80;55.72;98803.42;236599;1193;139063;-61
2021/10/05 13:37:03;;;;;;;12.10;6.00;;;;;;;22.79;55.37;98809.66;235969;1195;140482;-62
2021/10/05 13:42:07;;;;;;;9.30;5.90;;;;;;;22.78;55.14;98807.45;236181;1195;139370;-62
2021/10/05 13:47:10;;;;;;;11.40;6.10;;;;;;;22.72;54.72;98805.35;236046;1190;138977;-61
2021/10/05 13:52:14;;;;;;;9.40;5.60;;;;;;;22.68;54.44;98803.92;236309;1194;139231;-61
2021/10/05 13:57:17;;;;;;;13.90;6.30;;;;;;;22.61;54.18;98800.55;236340;1194;138641;-63
2021/10/05 14:02:20;;;;;;;7.20;5.30;;;;;;;22.56;53.97;98796.79;236404;1194;138859;-60
2021/10/05 14:07:24;;;;;;;8.30;5.30;;;;;;;22.54;53.84;98797.77;236297;1195;140232;-59
2021/10/05 14:12:27;;;;;;;15.80;6.00;;;;;;;22.48;53.51;98797.86;236357;1187;138570;-60
2021/10/05 14:17:30;;;;;;;10.60;5.50;;;;;;;22.40;53.22;98806.40;236006;1195;138760;-60
2021/10/05 14:22:33;;;;;;;10.70;5.20;;;;;;;22.30;53.01;98799.46;236121;1194;140830;-62
2021/10/05 14:27:37;;;;;;;13.00;5.50;;;;;;;22.26;52.98;98807.86;236335;1195;138837;-62
2021/10/05 14:32:40;;;;;;;10.00;5.50;;;;;;;22.24;52.88;98807.87;236493;1194;138973;-61
2021/10/05 14:37:44;;;;;;;9.00;5.20;;;;;;;22.24;52.91;98814.23;236368;1195;140183;-61
2021/10/05 14:42:47;;;;;;;13.60;5.70;;;;;;;22.21;52.83;98811.80;236307;1195;139133;-60
2021/10/05 14:47:50;;;;;;;12.30;5.40;;;;;;;22.18;52.73;98801.67;236158;1195;139637;-60
2021/10/05 14:52:54;;;;;;;9.90;5.50;;;;;;;22.12;52.50;98792.46;236167;1194;139127;-65
2021/10/05 14:57:57;;;;;;;17.60;5.50;;;;;;;22.05;52.31;98795.25;235859;1195;138721;-60
2021/10/05 15:03:00;;;;;;;9.90;5.00;;;;;;;21.97;52.23;98791.02;236457;1195;138976;-62
2021/10/05 15:08:04;;;;;;;12.40;5.20;;;;;;;21.88;51.95;98792.64;235815;1194;139260;-61
2021/10/05 15:13:08;;;;;;;10.90;5.40;;;;;;;21.78;51.86;98789.92;236491;1194;139352;-60
2021/10/05 15:18:13;;;;;;;8.40;5.60;;;;;;;21.69;51.76;98793.08;236341;1195;139019;-59
2021/10/05 15:23:16;;;;;;;13.10;5.40;;;;;;;21.62;51.80;98794.67;235987;1195;139280;-61
2021/10/05 15:28:20;;;;;;;10.00;5.20;;;;;;;21.53;51.72;98794.73;236217;1193;138983;-60
2021/10/05 15:33:23;;;;;;;10.10;5.50;;;;;;;21.44;51.60;98804.38;236231;1195;138851;-60
2021/10/05 15:38:26;;;;;;;10.30;5.70;;;;;;;21.37;51.64;98822.70;236025;1194;138436;-59
2021/10/05 15:43:29;;;;;;;10.20;5.90;;;;;;;21.29;51.67;98814.88;235724;1187;138948;-61
2021/10/05 15:48:32;;;;;;;9.20;6.10;;;;;;;21.22;51.66;98821.25;236210;1194;140611;-60
2021/10/05 15:53:35;;;;;;;12.70;7.00;;;;;;;21.13;51.74;98830.70;235796;1194;138761;-59
2021/10/05 15:58:39;;;;;;;9.80;6.30;;;;;;;21.04;51.62;98827.18;236266;1194;138768;-61
2021/10/05 16:03:42;;;;;;;10.80;6.00;;;;;;;20.96;51.63;98822.66;236142;1194;138552;-63
2021/10/05 16:08:46;;;;;;;8.90;6.30;;;;;;;20.86;51.62;98824.40;235945;1193;140285;-59
2021/10/05 16:13:50;;;;;;;14.40;6.10;;;;;;;20.79;51.51;98828.99;236256;1193;139708;-60
2021/10/05 16:18:53;;;;;;;13.10;6.30;;;;;;;20.71;51.58;98831.27;235822;1195;138842;-58
2021/10/05 16:23:57;;;;;;;13.40;6.10;;;;;;;20.67;51.67;98839.37;236231;1194;138916;-60
2021/10/05 16:29:06;;;;;;;10.00;5.80;;;;;;;20.60;52.31;98858.08;235586;1195;140221;-62
2021/10/05 16:34:09;;;;;;;13.40;5.90;;;;;;;20.55;52.40;98850.48;236241;1195;139620;-64
2021/10/05 16:39:31;;;;;;;10.80;5.90;;;;;;;20.48;52.61;98840.77;235752;1193;139661;-62
2021/10/05 16:44:34;;;;;;;12.20;6.50;;;;;;;20.42;52.68;98843.38;236232;1193;138779;-60
2021/10/05 16:49:39;;;;;;;411.60;308.50;;;;;;;20.36;52.92;98849.45;235849;1193;139132;-62
2021/10/05 16:54:42;;;;;;;24.40;15.80;;;;;;;20.28;52.62;98863.98;236285;1194;139434;-61
2021/10/05 16:59:45;;;;;;;16.50;8.60;;;;;;;20.16;52.46;98873.89;236340;1193;138635;-62
2021/10/05 17:04:48;;;;;;;20.90;8.50;;;;;;;20.04;52.37;98870.01;236334;1193;138919;-62
2021/10/05 17:09:52;;;;;;;14.80;8.10;;;;;;;19.96;52.28;98866.95;235736;1193;138761;-64
2021/10/05 17:14:55;;;;;;;14.70;7.30;;;;;;;19.89;52.30;98865.13;236210;1194;139652;-64
2021/10/05 17:19:58;;;;;;;24.40;8.00;;;;;;;19.78;52.21;98871.63;236160;1195;139333;-62
2021/10/05 17:25:02;;;;;;;23.70;8.70;;;;;;;19.70;52.29;98886.41;236265;1195;140508;-62
2021/10/05 17:30:07;;;;;;;20.10;7.60;;;;;;;19.62;52.45;98895.45;236042;1195;138967;-63
2021/10/05 17:35:10;;;;;;;13.70;7.50;;;;;;;19.54;52.29;98896.80;236202;1195;138819;-62
2021/10/05 17:40:14;;;;;;;18.60;6.90;;;;;;;19.44;52.39;98894.94;236022;1195;139803;-62
2021/10/05 17:45:17;;;;;;;12.80;7.50;;;;;;;19.34;52.45;98887.64;236367;1195;139779;-64
2021/10/05 17:50:23;;;;;;;15.00;7.10;;;;;;;19.26;52.57;98890.83;236401;1194;139473;-63
2021/10/05 17:55:27;;;;;;;12.30;6.80;;;;;;;19.20;52.69;98884.90;235713;1195;139595;-65
2021/10/05 18:00:30;;;;;;;12.50;7.30;;;;;;;19.13;52.69;98875.89;235693;1196;138496;-63
2021/10/05 18:05:33;;;;;;;13.00;7.00;;;;;;;19.02;52.67;98877.70;236211;1194;138662;-60
2021/10/05 18:10:37;;;;;;;11.80;7.90;;;;;;;18.96;52.83;98877.10;236349;1193;138907;-64
2021/10/05 18:15:40;;;;;;;13.70;7.70;;;;;;;18.86;52.94;98878.89;235532;1195;138803;-64
2021/10/05 18:20:43;;;;;;;11.60;6.80;;;;;;;18.76;53.01;98897.20;235710;1195;138277;-63
2021/10/05 18:25:47;;;;;;;13.10;7.50;;;;;;;18.62;52.96;98904.42;236447;1195;138928;-64
2021/10/05 18:30:50;;;;;;;17.10;7.30;;;;;;;18.54;53.16;98897.92;236204;1195;139164;-64
2021/10/05 18:35:53;;;;;;;12.90;7.10;;;;;;;18.49;53.49;98892.77;236271;1195;138435;-62
2021/10/05 18:40:56;;;;;;;12.30;6.70;;;;;;;18.48;53.54;98897.23;236171;1195;141242;-62
2021/10/05 18:46:02;;;;;;;13.50;7.30;;;;;;;18.49;53.56;98895.89;236380;1195;140418;-64
2021/10/05 18:51:05;;;;;;;16.60;8.10;;;;;;;18.45;53.68;98901.25;236269;1195;138701;-64
2021/10/05 18:56:09;;;;;;;15.50;8.00;;;;;;;18.35;53.74;98902.77;236224;1194;138474;-64
2021/10/05 19:01:12;;;;;;;19.70;8.30;;;;;;;18.25;53.92;98897.30;236247;1195;138663;-64
2021/10/05 19:06:16;;;;;;;21.00;9.80;;;;;;;18.18;54.16;98886.23;235927;1194;138514;-65
2021/10/05 19:11:20;;;;;;;20.10;9.90;;;;;;;18.16;54.32;98891.13;235714;1195;139005;-64
2021/10/05 19:16:26;;;;;;;20.30;10.20;;;;;;;18.14;54.11;98891.27;236079;1195;138685;-64
2021/10/05 19:21:29;;;;;;;20.70;10.40;;;;;;;18.14;54.32;98893.80;236028;1195;139217;-63
2021/10/05 19:26:32;;;;;;;25.30;12.80;;;;;;;18.12;54.53;98884.29;236276;1195;139663;-63
2021/10/05 19:31:35;;;;;;;39.90;22.10;;;;;;;18.07;54.55;98886.23;236486;1194;138911;-65
2021/10/05 19:36:38;;;;;;;243.10;202.20;;;;;;;18.01;54.65;98896.73;236153;1194;138684;-61
2021/10/05 19:41:42;;;;;;;30.00;18.30;;;;;;;17.92;54.75;98900.80;235968;1195;139528;-64
2021/10/05 19:46:48;;;;;;;21.90;11.00;;;;;;;17.83;54.86;98902.71;235835;1195;138873;-62
2021/10/05 19:51:51;;;;;;;21.70;9.90;;;;;;;17.71;55.05;98905.46;236056;1194;138873;-63
2021/10/05 19:56:55;;;;;;;30.10;17.80;;;;;;;17.60;55.43;98903.59;236084;1195;138493;-64
2021/10/05 20:01:59;;;;;;;22.80;10.50;;;;;;;17.55;55.53;98905.66;236269;1194;141407;-62
2021/10/05 20:07:03;;;;;;;21.50;11.00;;;;;;;17.46;55.77;98905.42;236380;1193;139292;-63
2021/10/05 20:12:06;;;;;;;22.10;10.80;;;;;;;17.32;55.81;98906.23;235984;1195;139850;-63
2021/10/05 20:17:09;;;;;;;20.80;12.20;;;;;;;17.19;56.05;98907.36;236234;1194;139076;-65
2021/10/05 20:22:12;;;;;;;23.20;12.40;;;;;;;17.06;56.24;98919.83;236120;1195;138997;-59
2021/10/05 20:27:15;;;;;;;18.80;11.00;;;;;;;16.97;56.36;98916.52;236233;1193;139482;-61
2021/10/05 20:32:18;;;;;;;19.10;10.90;;;;;;;16.87;56.47;98920.30;236142;1195;140100;-63
2021/10/05 20:37:23;;;;;;;55.90;30.30;;;;;;;16.77;56.64;98917.42;236223;1195;139425;-60
2021/10/05 20:42:26;;;;;;;25.10;12.50;;;;;;;16.71;57.03;98913.46;236150;1194;141092;-66
2021/10/05 20:47:29;;;;;;;17.60;10.10;;;;;;;16.63;57.05;98906.66;235663;1196;139281;-63
2021/10/05 20:52:38;;;;;;;16.90;9.20;;;;;;;16.51;57.32;98895.52;236172;1195;139194;-64
2021/10/05 20:57:46;;;;;;;13.90;9.10;;;;;;;16.44;57.50;98894.08;235999;1195;138501;-66
2021/10/05 21:02:49;;;;;;;15.40;9.20;;;;;;;16.34;57.52;98897.95;236108;1195;139006;-63
2021/10/05 21:07:56;;;;;;;14.20;9.30;;;;;;;16.26;57.56;98904.55;236214;1195;139274;-62
2021/10/05 21:13:00;;;;;;;15.00;8.60;;;;;;;16.17;57.65;98899.45;236643;1195;138518;-62
2021/10/05 21:18:04;;;;;;;18.60;9.00;;;;;;;16.12;58.07;98894.20;236144;1195;139162;-63
2021/10/05 21:23:07;;;;;;;14.60;8.90;;;;;;;16.05;58.18;98889.88;235705;1196;139072;-62
2021/10/05 21:28:10;;;;;;;16.60;8.50;;;;;;;16.05;58.59;98888.30;236021;1195;139354;-66
2021/10/05 21:33:13;;;;;;;17.90;8.70;;;;;;;16.05;58.47;98882.98;236204;1195;139159;-67
2021/10/05 21:38:21;;;;;;;15.00;8.80;;;;;;;16.03;58.67;98889.77;235957;1195;139325;-62
2021/10/05 21:43:24;;;;;;;11.80;7.90;;;;;;;16.02;58.80;98900.55;236375;1195;139362;-68
2021/10/05 21:48:31;;;;;;;13.70;8.40;;;;;;;16.05;59.08;98896.54;235946;1194;139033;-64
2021/10/05 21:53:34;;;;;;;12.40;8.50;;;;;;;16.04;59.10;98900.21;236154;1195;138782;-65
2021/10/05 21:58:39;;;;;;;16.60;8.30;;;;;;;15.97;58.91;98895.96;235846;1195;138549;-65
2021/10/05 22:03:45;;;;;;;13.60;8.20;;;;;;;15.90;58.93;98901.77;235538;1195;139706;-64
2021/10/05 22:08:48;;;;;;;13.70;8.50;;;;;;;15.81;59.16;98903.42;236064;1195;138455;-64
2021/10/05 22:13:52;;;;;;;12.60;8.10;;;;;;;15.73;59.23;98902.52;236432;1193;138370;-62
2021/10/05 22:18:57;;;;;;;11.80;8.20;;;;;;;15.67;59.51;98902.90;235469;1195;139141;-62
2021/10/05 22:24:09;;;;;;;11.50;8.00;;;;;;;15.60;59.65;98898.61;235526;1195;138585;-62
2021/10/05 22:29:15;;;;;;;13.10;8.10;;;;;;;15.54;59.85;98901.98;234965;1196;138591;-59
2021/10/05 22:34:21;;;;;;;13.50;7.80;;;;;;;15.51;60.00;98903.45;235077;1195;139642;-60
2021/10/05 22:39:27;;;;;;;14.40;7.80;;;;;;;15.48;60.15;98915.70;235153;1195;160556;-62
2021/10/05 22:44:47;;;;;;;12.10;8.20;;;;;;;15.51;60.45;98921.02;235103;1195;143622;-62
2021/10/05 22:49:56;;;;;;;14.30;8.10;;;;;;;15.52;60.39;98920.40;235424;1195;139739;-63
2021/10/05 22:55:14;;;;;;;11.70;7.50;;;;;;;15.49;60.50;98930.45;235333;1195;139111;-64
2021/10/05 23:00:20;;;;;;;11.60;7.60;;;;;;;15.48;60.42;98941.42;235658;1195;139538;-61